sensor_id;sensor_type;location;lat;lon;timestamp;pressure;altitude;pressure_sealevel;temperature;humidity
11808;BME280;5961;42.640;23.380;2023-02-25T00:01:03;93438.75;;;9.01;87.70
11808;BME280;5961;42.640;23.380;2023-02-25T00:03:31;93437.13;;;8.97;88.09
11808;BME280;5961;42.640;23.380;2023-02-25T00:05:57;93437.69;;;8.90;87.72
11808;BME280;5961;42.640;23.380;2023-02-25T00:08:24;93433.50;;;8.89;88.05
11808;BME280;5961;42.640;23.380;2023-02-25T00:10:57;93444.34;;;8.84;88.62
11808;BME280;5961;42.640;23.380;2023-02-25T00:13:24;93427.03;;;8.74;88.90
11808;BME280;5961;42.640;23.380;2023-02-25T00:15:50;93430.88;;;8.77;88.94
11808;BME280;5961;42.640;23.380;2023-02-25T00:18:17;93437.06;;;8.81;88.87
11808;BME280;5961;42.640;23.380;2023-02-25T00:20:44;93443.25;;;8.85;88.75
11808;BME280;5961;42.640;23.380;2023-02-25T00:23:10;93430.19;;;8.80;88.34
11808;BME280;5961;42.640;23.380;2023-02-25T00:25:37;93436.28;;;8.80;88.39
11808;BME280;5961;42.640;23.380;2023-02-25T00:28:05;93433.09;;;8.75;89.09
11808;BME280;5961;42.640;23.380;2023-02-25T00:30:32;93433.97;;;8.79;88.46
11808;BME280;5961;42.640;23.380;2023-02-25T00:32:59;93425.56;;;8.77;88.74
11808;BME280;5961;42.640;23.380;2023-02-25T00:35:26;93399.56;;;8.67;89.24
11808;BME280;5961;42.640;23.380;2023-02-25T00:37:53;93406.28;;;8.64;89.25
11808;BME280;5961;42.640;23.380;2023-02-25T00:40:20;93417.88;;;8.72;89.64
11808;BME280;5961;42.640;23.380;2023-02-25T00:42:46;93419.41;;;8.73;89.12
11808;BME280;5961;42.640;23.380;2023-02-25T00:45:15;93409.03;;;8.68;89.02
11808;BME280;5961;42.640;23.380;2023-02-25T00:47:42;93409.69;;;8.77;89.05
11808;BME280;5961;42.640;23.380;2023-02-25T00:50:09;93399.09;;;8.77;88.73
11808;BME280;5961;42.640;23.380;2023-02-25T00:52:39;93397.34;;;8.69;88.88
11808;BME280;5961;42.640;23.380;2023-02-25T00:55:06;93390.97;;;8.70;88.87
11808;BME280;5961;42.640;23.380;2023-02-25T00:57:33;93388.31;;;8.70;88.78
11808;BME280;5961;42.640;23.380;2023-02-25T01:00:00;93376.16;;;8.69;88.56
11808;BME280;5961;42.640;23.380;2023-02-25T01:02:35;93384.22;;;8.72;88.41
11808;BME280;5961;42.640;23.380;2023-02-25T01:05:02;93389.41;;;8.69;88.22
11808;BME280;5961;42.640;23.380;2023-02-25T01:07:29;93372.41;;;8.70;87.77
11808;BME280;5961;42.640;23.380;2023-02-25T01:09:56;93366.44;;;8.73;87.68
11808;BME280;5961;42.640;23.380;2023-02-25T01:12:22;93366.44;;;8.73;87.97
11808;BME280;5961;42.640;23.380;2023-02-25T01:14:49;93358.25;;;8.78;87.72
11808;BME280;5961;42.640;23.380;2023-02-25T01:17:16;93359.03;;;8.78;87.17
11808;BME280;5961;42.640;23.380;2023-02-25T01:19:44;93362.97;;;8.85;87.19
11808;BME280;5961;42.640;23.380;2023-02-25T01:22:11;93364.50;;;8.86;86.81
11808;BME280;5961;42.640;23.380;2023-02-25T01:24:37;93346.41;;;8.88;86.51
11808;BME280;5961;42.640;23.380;2023-02-25T01:27:04;93361.94;;;8.89;86.44
11808;BME280;5961;42.640;23.380;2023-02-25T01:29:33;93363.94;;;8.92;86.29
11808;BME280;5961;42.640;23.380;2023-02-25T01:32:02;93350.00;;;8.95;86.15
11808;BME280;5961;42.640;23.380;2023-02-25T01:34:29;93355.09;;;9.00;85.69
11808;BME280;5961;42.640;23.380;2023-02-25T01:36:57;93347.56;;;9.02;85.83
11808;BME280;5961;42.640;23.380;2023-02-25T01:39:26;93342.69;;;9.04;85.44
11808;BME280;5961;42.640;23.380;2023-02-25T01:41:54;93343.88;;;9.07;84.84
11808;BME280;5961;42.640;23.380;2023-02-25T01:44:23;93359.25;;;9.01;85.40
11808;BME280;5961;42.640;23.380;2023-02-25T01:46:52;93363.66;;;9.09;84.62
11808;BME280;5961;42.640;23.380;2023-02-25T01:49:21;93372.34;;;9.10;84.88
11808;BME280;5961;42.640;23.380;2023-02-25T01:51:56;93363.19;;;9.07;84.34
11808;BME280;5961;42.640;23.380;2023-02-25T01:54:26;93346.78;;;9.02;84.42
11808;BME280;5961;42.640;23.380;2023-02-25T01:56:54;93349.78;;;9.16;84.29
11808;BME280;5961;42.640;23.380;2023-02-25T01:59:24;93364.28;;;9.18;84.40
11808;BME280;5961;42.640;23.380;2023-02-25T02:01:51;93348.38;;;9.18;83.85
11808;BME280;5961;42.640;23.380;2023-02-25T02:04:19;93352.38;;;9.12;84.40
11808;BME280;5961;42.640;23.380;2023-02-25T02:06:48;93350.63;;;9.04;84.36
11808;BME280;5961;42.640;23.380;2023-02-25T02:09:19;93361.28;;;8.92;85.65
11808;BME280;5961;42.640;23.380;2023-02-25T02:11:46;93334.94;;;8.83;87.04
11808;BME280;5961;42.640;23.380;2023-02-25T02:14:15;93326.06;;;8.64;86.75
11808;BME280;5961;42.640;23.380;2023-02-25T02:16:55;93347.75;;;8.81;87.07
11808;BME280;5961;42.640;23.380;2023-02-25T02:19:35;93330.31;;;8.80;87.10
11808;BME280;5961;42.640;23.380;2023-02-25T02:22:08;93327.09;;;8.87;87.46
11808;BME280;5961;42.640;23.380;2023-02-25T02:30:50;93314.97;;;9.02;87.45
11808;BME280;5961;42.640;23.380;2023-02-25T02:33:28;93329.53;;;9.08;87.61
11808;BME280;5961;42.640;23.380;2023-02-25T02:36:06;93307.69;;;8.99;88.31
11808;BME280;5961;42.640;23.380;2023-02-25T02:38:42;93305.66;;;9.08;88.04
11808;BME280;5961;42.640;23.380;2023-02-25T02:41:25;93312.53;;;9.09;88.17
11808;BME280;5961;42.640;23.380;2023-02-25T02:44:01;93304.66;;;9.12;87.91
11808;BME280;5961;42.640;23.380;2023-02-25T02:46:33;93313.03;;;9.14;87.41
11808;BME280;5961;42.640;23.380;2023-02-25T02:49:06;93294.06;;;9.12;87.16
11808;BME280;5961;42.640;23.380;2023-02-25T02:51:37;93286.34;;;9.07;87.37
11808;BME280;5961;42.640;23.380;2023-02-25T02:54:07;93293.97;;;9.09;87.71
11808;BME280;5961;42.640;23.380;2023-02-25T02:56:37;93285.34;;;9.12;87.93
11808;BME280;5961;42.640;23.380;2023-02-25T02:59:09;93272.66;;;9.05;87.92
11808;BME280;5961;42.640;23.380;2023-02-25T03:01:40;93285.91;;;9.05;87.91
11808;BME280;5961;42.640;23.380;2023-02-25T03:04:13;93283.78;;;9.11;87.32
11808;BME280;5961;42.640;23.380;2023-02-25T03:06:44;93266.00;;;9.11;87.88
11808;BME280;5961;42.640;23.380;2023-02-25T03:09:16;93267.94;;;8.99;87.42
11808;BME280;5961;42.640;23.380;2023-02-25T03:11:45;93268.47;;;9.04;86.77
11808;BME280;5961;42.640;23.380;2023-02-25T03:14:12;93286.19;;;9.00;86.92
11808;BME280;5961;42.640;23.380;2023-02-25T03:16:44;93279.53;;;9.06;86.42
11808;BME280;5961;42.640;23.380;2023-02-25T03:19:15;93272.84;;;8.97;86.34
11808;BME280;5961;42.640;23.380;2023-02-25T03:21:47;93268.63;;;8.96;86.99
11808;BME280;5961;42.640;23.380;2023-02-25T03:24:18;93273.41;;;8.90;86.88
11808;BME280;5961;42.640;23.380;2023-02-25T03:26:47;93294.41;;;8.83;86.76
11808;BME280;5961;42.640;23.380;2023-02-25T03:29:16;93278.97;;;8.85;86.87
11808;BME280;5961;42.640;23.380;2023-02-25T03:31:47;93280.50;;;8.86;86.72
11808;BME280;5961;42.640;23.380;2023-02-25T03:34:19;93278.09;;;8.81;86.72
11808;BME280;5961;42.640;23.380;2023-02-25T03:36:49;93266.81;;;8.84;86.35
11808;BME280;5961;42.640;23.380;2023-02-25T03:39:21;93278.00;;;8.77;86.74
11808;BME280;5961;42.640;23.380;2023-02-25T03:41:53;93282.53;;;8.77;86.67
11808;BME280;5961;42.640;23.380;2023-02-25T03:44:23;93277.91;;;8.74;86.60
11808;BME280;5961;42.640;23.380;2023-02-25T03:46:52;93285.00;;;8.70;86.73
11808;BME280;5961;42.640;23.380;2023-02-25T03:49:26;93282.41;;;8.73;86.72
11808;BME280;5961;42.640;23.380;2023-02-25T03:51:55;93285.41;;;8.72;86.37
11808;BME280;5961;42.640;23.380;2023-02-25T03:54:22;93287.56;;;8.66;86.47
11808;BME280;5961;42.640;23.380;2023-02-25T03:56:50;93286.78;;;8.66;86.53
11808;BME280;5961;42.640;23.380;2023-02-25T03:59:17;93276.19;;;8.66;86.25
11808;BME280;5961;42.640;23.380;2023-02-25T04:01:47;93256.34;;;8.60;86.39
11808;BME280;5961;42.640;23.380;2023-02-25T04:04:15;93252.59;;;8.61;86.23
11808;BME280;5961;42.640;23.380;2023-02-25T04:06:43;93238.72;;;8.52;86.30
11808;BME280;5961;42.640;23.380;2023-02-25T04:09:10;93241.38;;;8.52;86.40
11808;BME280;5961;42.640;23.380;2023-02-25T04:11:37;93235.47;;;8.43;86.35
11808;BME280;5961;42.640;23.380;2023-02-25T04:14:03;93247.66;;;8.47;86.37
11808;BME280;5961;42.640;23.380;2023-02-25T04:16:30;93254.41;;;8.45;86.56
11808;BME280;5961;42.640;23.380;2023-02-25T04:18:57;93256.03;;;8.49;86.70
11808;BME280;5961;42.640;23.380;2023-02-25T04:21:27;93275.59;;;8.45;86.78
11808;BME280;5961;42.640;23.380;2023-02-25T04:23:55;93262.34;;;8.45;86.73
11808;BME280;5961;42.640;23.380;2023-02-25T04:26:22;93276.91;;;8.51;86.84
11808;BME280;5961;42.640;23.380;2023-02-25T04:28:49;93279.19;;;8.52;87.01
11808;BME280;5961;42.640;23.380;2023-02-25T04:31:16;93263.66;;;8.51;86.81
11808;BME280;5961;42.640;23.380;2023-02-25T04:33:43;93254.41;;;8.45;86.84
11808;BME280;5961;42.640;23.380;2023-02-25T04:36:24;93247.34;;;8.49;86.74
11808;BME280;5961;42.640;23.380;2023-02-25T04:38:52;93254.66;;;8.40;87.19
11808;BME280;5961;42.640;23.380;2023-02-25T04:41:20;93246.72;;;8.40;87.30
11808;BME280;5961;42.640;23.380;2023-02-25T04:43:47;93252.88;;;8.44;87.18
11808;BME280;5961;42.640;23.380;2023-02-25T04:46:14;93249.03;;;8.41;87.05
11808;BME280;5961;42.640;23.380;2023-02-25T04:48:40;93218.69;;;8.39;87.23
11808;BME280;5961;42.640;23.380;2023-02-25T04:51:08;93236.97;;;8.44;86.67
11808;BME280;5961;42.640;23.380;2023-02-25T04:53:35;93232.34;;;8.41;87.28
11808;BME280;5961;42.640;23.380;2023-02-25T04:56:03;93218.81;;;8.42;87.17
11808;BME280;5961;42.640;23.380;2023-02-25T04:58:31;93211.00;;;8.34;86.94
11808;BME280;5961;42.640;23.380;2023-02-25T05:00:59;93210.56;;;8.32;86.77
11808;BME280;5961;42.640;23.380;2023-02-25T05:03:26;93192.47;;;8.34;86.67
11808;BME280;5961;42.640;23.380;2023-02-25T05:05:53;93200.50;;;8.37;86.80
11808;BME280;5961;42.640;23.380;2023-02-25T05:08:20;93199.75;;;8.37;86.73
11808;BME280;5961;42.640;23.380;2023-02-25T05:10:47;93211.00;;;8.34;86.73
11808;BME280;5961;42.640;23.380;2023-02-25T05:13:14;93155.97;;;7.99;87.64
11808;BME280;5961;42.640;23.380;2023-02-25T05:15:42;93179.47;;;8.28;87.57
11808;BME280;5961;42.640;23.380;2023-02-25T05:18:09;93188.06;;;8.25;87.35
11808;BME280;5961;42.640;23.380;2023-02-25T05:20:38;93209.81;;;8.19;87.10
11808;BME280;5961;42.640;23.380;2023-02-25T05:23:05;93184.69;;;8.13;87.76
11808;BME280;5961;42.640;23.380;2023-02-25T05:25:32;93199.97;;;8.19;87.36
11808;BME280;5961;42.640;23.380;2023-02-25T05:27:59;93182.81;;;8.13;87.59
11808;BME280;5961;42.640;23.380;2023-02-25T05:30:26;93197.38;;;8.07;87.80
11808;BME280;5961;42.640;23.380;2023-02-25T05:32:54;93207.13;;;8.03;87.68
11808;BME280;5961;42.640;23.380;2023-02-25T05:35:20;93228.34;;;8.07;88.19
11808;BME280;5961;42.640;23.380;2023-02-25T05:37:47;93195.09;;;8.06;89.14
11808;BME280;5961;42.640;23.380;2023-02-25T05:40:14;93237.88;;;7.96;90.73
11808;BME280;5961;42.640;23.380;2023-02-25T05:42:40;93232.59;;;7.96;91.36
11808;BME280;5961;42.640;23.380;2023-02-25T05:45:08;93233.47;;;8.00;92.32
11808;BME280;5961;42.640;23.380;2023-02-25T05:47:35;93285.38;;;8.04;92.31
11808;BME280;5961;42.640;23.380;2023-02-25T05:50:04;93269.50;;;8.04;91.38
11808;BME280;5961;42.640;23.380;2023-02-25T05:52:31;93271.72;;;8.02;92.13
11808;BME280;5961;42.640;23.380;2023-02-25T05:54:57;93265.34;;;8.03;91.78
11808;BME280;5961;42.640;23.380;2023-02-25T05:57:24;93262.91;;;7.98;91.84
11808;BME280;5961;42.640;23.380;2023-02-25T05:59:51;93300.94;;;8.06;91.34
11808;BME280;5961;42.640;23.380;2023-02-25T06:02:17;93266.97;;;8.08;91.32
11808;BME280;5961;42.640;23.380;2023-02-25T06:04:44;93295.28;;;8.07;91.73
11808;BME280;5961;42.640;23.380;2023-02-25T06:07:14;93308.53;;;8.07;91.86
11808;BME280;5961;42.640;23.380;2023-02-25T06:09:40;93287.16;;;8.12;91.95
11808;BME280;5961;42.640;23.380;2023-02-25T06:12:08;93295.09;;;8.12;91.73
11808;BME280;5961;42.640;23.380;2023-02-25T06:14:34;93318.22;;;8.15;92.22
11808;BME280;5961;42.640;23.380;2023-02-25T06:17:01;93255.19;;;7.93;91.98
11808;BME280;5961;42.640;23.380;2023-02-25T06:19:28;93294.41;;;8.27;91.95
11808;BME280;5961;42.640;23.380;2023-02-25T06:21:55;93251.81;;;8.33;91.58
11808;BME280;5961;42.640;23.380;2023-02-25T06:24:23;93267.59;;;8.29;91.76
11808;BME280;5961;42.640;23.380;2023-02-25T06:26:50;93303.66;;;8.34;91.20
11808;BME280;5961;42.640;23.380;2023-02-25T06:29:16;93287.00;;;8.21;91.53
11808;BME280;5961;42.640;23.380;2023-02-25T06:31:43;93273.53;;;8.26;91.79
11808;BME280;5961;42.640;23.380;2023-02-25T06:34:10;93272.91;;;8.05;92.40
11808;BME280;5961;42.640;23.380;2023-02-25T06:36:36;93255.13;;;8.17;92.54
11808;BME280;5961;42.640;23.380;2023-02-25T06:39:03;93274.97;;;8.23;92.38
11808;BME280;5961;42.640;23.380;2023-02-25T06:41:31;93248.47;;;7.96;91.83
11808;BME280;5961;42.640;23.380;2023-02-25T06:43:58;93254.72;;;8.15;91.90
11808;BME280;5961;42.640;23.380;2023-02-25T06:46:25;93281.72;;;8.21;91.96
11808;BME280;5961;42.640;23.380;2023-02-25T06:48:52;93286.91;;;8.30;90.77
11808;BME280;5961;42.640;23.380;2023-02-25T06:51:20;93274.63;;;8.37;91.21
11808;BME280;5961;42.640;23.380;2023-02-25T06:53:46;93280.13;;;8.44;90.94
11808;BME280;5961;42.640;23.380;2023-02-25T06:56:14;93262.41;;;8.33;89.34
11808;BME280;5961;42.640;23.380;2023-02-25T06:58:46;93250.66;;;8.46;89.19
11808;BME280;5961;42.640;23.380;2023-02-25T07:01:14;93253.94;;;8.55;89.56
11808;BME280;5961;42.640;23.380;2023-02-25T07:03:41;93264.28;;;8.60;89.06
11808;BME280;5961;42.640;23.380;2023-02-25T07:06:08;93244.28;;;8.62;88.81
11808;BME280;5961;42.640;23.380;2023-02-25T07:08:35;93251.00;;;8.72;88.35
11808;BME280;5961;42.640;23.380;2023-02-25T07:11:10;93235.50;;;8.74;88.79
11808;BME280;5961;42.640;23.380;2023-02-25T07:13:37;93196.06;;;8.85;88.42
11808;BME280;5961;42.640;23.380;2023-02-25T07:16:05;93226.13;;;8.92;88.66
11808;BME280;5961;42.640;23.380;2023-02-25T07:18:32;93214.63;;;9.00;87.81
11808;BME280;5961;42.640;23.380;2023-02-25T07:20:59;93210.00;;;8.97;88.45
11808;BME280;5961;42.640;23.380;2023-02-25T07:23:25;93213.69;;;9.08;88.26
11808;BME280;5961;42.640;23.380;2023-02-25T07:25:52;93203.84;;;9.09;87.34
11808;BME280;5961;42.640;23.380;2023-02-25T07:28:19;93205.56;;;9.17;87.25
11808;BME280;5961;42.640;23.380;2023-02-25T07:30:45;93207.34;;;9.28;86.54
11808;BME280;5961;42.640;23.380;2023-02-25T07:33:13;93193.16;;;9.36;86.25
11808;BME280;5961;42.640;23.380;2023-02-25T07:35:40;93194.16;;;9.48;86.12
11808;BME280;5961;42.640;23.380;2023-02-25T07:38:07;93184.47;;;9.55;85.50
11808;BME280;5961;42.640;23.380;2023-02-25T07:40:37;93156.22;;;9.63;84.69
11808;BME280;5961;42.640;23.380;2023-02-25T07:43:05;93158.66;;;9.71;83.42
11808;BME280;5961;42.640;23.380;2023-02-25T07:45:32;93162.66;;;9.81;83.65
11808;BME280;5961;42.640;23.380;2023-02-25T07:47:58;93166.56;;;9.87;82.91
11808;BME280;5961;42.640;23.380;2023-02-25T07:50:26;93168.63;;;9.93;82.53
11808;BME280;5961;42.640;23.380;2023-02-25T07:52:53;93155.13;;;10.02;81.45
11808;BME280;5961;42.640;23.380;2023-02-25T07:55:20;93146.06;;;10.03;81.11
11808;BME280;5961;42.640;23.380;2023-02-25T07:57:47;93149.59;;;10.11;80.81
11808;BME280;5961;42.640;23.380;2023-02-25T08:00:14;93148.72;;;10.22;80.76
11808;BME280;5961;42.640;23.380;2023-02-25T08:02:42;93151.84;;;10.28;79.77
11808;BME280;5961;42.640;23.380;2023-02-25T08:05:09;93143.97;;;10.31;79.19
11808;BME280;5961;42.640;23.380;2023-02-25T08:07:38;93133.19;;;10.43;78.91
11808;BME280;5961;42.640;23.380;2023-02-25T08:10:05;93129.53;;;10.52;78.90
11808;BME280;5961;42.640;23.380;2023-02-25T08:12:32;93140.22;;;10.55;78.56
11808;BME280;5961;42.640;23.380;2023-02-25T08:14:58;93148.66;;;10.61;78.17
11808;BME280;5961;42.640;23.380;2023-02-25T08:17:26;93132.06;;;10.67;77.97
11808;BME280;5961;42.640;23.380;2023-02-25T08:19:56;93135.91;;;10.70;78.05
11808;BME280;5961;42.640;23.380;2023-02-25T08:22:23;93130.41;;;10.82;85.99
11808;BME280;5961;42.640;23.380;2023-02-25T08:24:51;93148.31;;;10.85;78.29
11808;BME280;5961;42.640;23.380;2023-02-25T08:27:18;93107.47;;;10.93;77.50
11808;BME280;5961;42.640;23.380;2023-02-25T08:29:45;93124.00;;;11.06;90.38
11808;BME280;5961;42.640;23.380;2023-02-25T08:32:11;93134.66;;;11.09;81.08
11808;BME280;5961;42.640;23.380;2023-02-25T08:34:38;93124.19;;;11.20;89.63
11808;BME280;5961;42.640;23.380;2023-02-25T08:37:07;93120.09;;;11.26;81.89
11808;BME280;5961;42.640;23.380;2023-02-25T08:39:35;93138.41;;;11.31;82.32
11808;BME280;5961;42.640;23.380;2023-02-25T08:42:04;93082.66;;;11.38;83.12
11808;BME280;5961;42.640;23.380;2023-02-25T08:44:30;93124.13;;;11.42;78.63
11808;BME280;5961;42.640;23.380;2023-02-25T08:46:57;93063.81;;;11.20;87.36
11808;BME280;5961;42.640;23.380;2023-02-25T08:49:24;93072.28;;;11.29;87.49
11808;BME280;5961;42.640;23.380;2023-02-25T08:51:50;93089.34;;;11.54;85.41
11808;BME280;5961;42.640;23.380;2023-02-25T08:54:17;93118.53;;;11.74;87.49
11808;BME280;5961;42.640;23.380;2023-02-25T08:56:44;93069.97;;;11.84;86.52
11808;BME280;5961;42.640;23.380;2023-02-25T08:59:14;93104.25;;;11.89;77.55
11808;BME280;5961;42.640;23.380;2023-02-25T09:01:41;93125.59;;;11.92;74.79
11808;BME280;5961;42.640;23.380;2023-02-25T09:04:11;93099.81;;;11.96;81.05
11808;BME280;5961;42.640;23.380;2023-02-25T09:06:38;93115.06;;;12.03;75.39
11808;BME280;5961;42.640;23.380;2023-02-25T09:09:05;93111.34;;;12.07;82.66
11808;BME280;5961;42.640;23.380;2023-02-25T09:11:32;93103.88;;;12.20;89.95
11808;BME280;5961;42.640;23.380;2023-02-25T09:13:58;93100.16;;;12.28;89.93
11808;BME280;5961;42.640;23.380;2023-02-25T09:16:29;93090.25;;;12.29;77.14
11808;BME280;5961;42.640;23.380;2023-02-25T09:18:55;93087.25;;;12.34;73.91
11808;BME280;5961;42.640;23.380;2023-02-25T09:21:22;93092.66;;;12.41;70.98
11808;BME280;5961;42.640;23.380;2023-02-25T09:23:50;93083.91;;;12.40;69.95
11808;BME280;5961;42.640;23.380;2023-02-25T09:26:18;93095.69;;;12.39;70.61
11808;BME280;5961;42.640;23.380;2023-02-25T09:28:45;93094.94;;;12.39;70.72
11808;BME280;5961;42.640;23.380;2023-02-25T09:31:12;93075.34;;;12.24;71.80
11808;BME280;5961;42.640;23.380;2023-02-25T09:33:41;93077.97;;;12.17;72.24
11808;BME280;5961;42.640;23.380;2023-02-25T09:36:11;93081.03;;;12.19;72.56
11808;BME280;5961;42.640;23.380;2023-02-25T09:38:39;93061.16;;;12.13;72.87
11808;BME280;5961;42.640;23.380;2023-02-25T09:41:17;93058.84;;;12.08;72.77
11808;BME280;5961;42.640;23.380;2023-02-25T09:43:48;93064.13;;;12.04;72.84
11808;BME280;5961;42.640;23.380;2023-02-25T09:46:20;93066.31;;;11.95;72.95
11808;BME280;5961;42.640;23.380;2023-02-25T09:48:52;93063.56;;;11.88;73.47
11808;BME280;5961;42.640;23.380;2023-02-25T09:51:22;93057.06;;;11.86;74.90
11808;BME280;5961;42.640;23.380;2023-02-25T09:53:52;93035.72;;;11.82;74.54
11808;BME280;5961;42.640;23.380;2023-02-25T09:56:24;93036.72;;;11.71;74.92
11808;BME280;5961;42.640;23.380;2023-02-25T09:58:54;93033.41;;;11.77;75.08
11808;BME280;5961;42.640;23.380;2023-02-25T10:01:30;93036.41;;;11.76;74.20
11808;BME280;5961;42.640;23.380;2023-02-25T10:04:06;93031.81;;;11.73;73.93
11808;BME280;5961;42.640;23.380;2023-02-25T10:06:36;93034.06;;;11.71;73.05
11808;BME280;5961;42.640;23.380;2023-02-25T10:09:12;93040.56;;;11.73;73.17
11808;BME280;5961;42.640;23.380;2023-02-25T10:11:50;92992.97;;;11.68;73.36
11808;BME280;5961;42.640;23.380;2023-02-25T10:14:30;93041.97;;;11.67;73.07
11808;BME280;5961;42.640;23.380;2023-02-25T10:17:04;93028.75;;;11.71;73.09
11808;BME280;5961;42.640;23.380;2023-02-25T10:19:44;93018.91;;;11.75;72.20
11808;BME280;5961;42.640;23.380;2023-02-25T10:22:26;93010.59;;;11.80;72.01
11808;BME280;5961;42.640;23.380;2023-02-25T10:25:02;92988.56;;;11.83;71.71
11808;BME280;5961;42.640;23.380;2023-02-25T10:27:37;92994.69;;;11.83;71.65
11808;BME280;5961;42.640;23.380;2023-02-25T10:30:13;92975.69;;;11.88;71.15
11808;BME280;5961;42.640;23.380;2023-02-25T10:32:41;92971.50;;;11.84;70.17
11808;BME280;5961;42.640;23.380;2023-02-25T10:35:15;92990.66;;;12.00;70.19
11808;BME280;5961;42.640;23.380;2023-02-25T10:37:43;92976.63;;;12.06;69.22
11808;BME280;5961;42.640;23.380;2023-02-25T10:40:14;92967.56;;;12.11;68.99
11808;BME280;5961;42.640;23.380;2023-02-25T10:42:44;92983.19;;;12.16;69.29
11808;BME280;5961;42.640;23.380;2023-02-25T10:45:17;92993.13;;;12.19;69.18
11808;BME280;5961;42.640;23.380;2023-02-25T10:47:50;92909.47;;;11.80;68.99
11808;BME280;5961;42.640;23.380;2023-02-25T10:50:21;92947.50;;;12.21;68.50
11808;BME280;5961;42.640;23.380;2023-02-25T10:52:57;92967.69;;;12.25;67.51
11808;BME280;5961;42.640;23.380;2023-02-25T10:55:46;92931.97;;;12.33;66.38
11808;BME280;5961;42.640;23.380;2023-02-25T10:58:26;92948.38;;;12.35;65.62
11808;BME280;5961;42.640;23.380;2023-02-25T11:00:58;92937.38;;;12.40;64.64
11808;BME280;5961;42.640;23.380;2023-02-25T11:03:28;92940.41;;;12.42;64.59
11808;BME280;5961;42.640;23.380;2023-02-25T11:06:09;92930.56;;;12.46;63.54
11808;BME280;5961;42.640;23.380;2023-02-25T11:08:36;92937.03;;;12.49;63.57
11808;BME280;5961;42.640;23.380;2023-02-25T11:11:05;92916.88;;;12.51;63.55
11808;BME280;5961;42.640;23.380;2023-02-25T11:13:38;92925.31;;;12.57;63.60
11808;BME280;5961;42.640;23.380;2023-02-25T11:16:07;92930.25;;;12.58;62.62
11808;BME280;5961;42.640;23.380;2023-02-25T11:18:35;92919.22;;;12.56;62.22
11808;BME280;5961;42.640;23.380;2023-02-25T11:21:05;92803.06;;;11.87;62.13
11808;BME280;5961;42.640;23.380;2023-02-25T11:23:35;92921.59;;;12.69;61.27
11808;BME280;5961;42.640;23.380;2023-02-25T11:26:04;92910.91;;;12.69;60.52
11808;BME280;5961;42.640;23.380;2023-02-25T11:28:35;92898.03;;;12.78;59.74
11808;BME280;5961;42.640;23.380;2023-02-25T11:31:09;92928.53;;;12.84;58.94
11808;BME280;5961;42.640;23.380;2023-02-25T11:33:38;92919.41;;;12.88;58.07
11808;BME280;5961;42.640;23.380;2023-02-25T11:36:06;92905.69;;;12.93;57.76
11808;BME280;5961;42.640;23.380;2023-02-25T11:38:36;92904.97;;;13.00;56.90
11808;BME280;5961;42.640;23.380;2023-02-25T11:41:14;92904.22;;;13.03;56.78
11808;BME280;5961;42.640;23.380;2023-02-25T11:43:42;92902.75;;;13.09;54.96
11808;BME280;5961;42.640;23.380;2023-02-25T11:46:12;92910.44;;;13.14;56.13
11808;BME280;5961;42.640;23.380;2023-02-25T11:48:46;92914.25;;;13.20;55.89
11808;BME280;5961;42.640;23.380;2023-02-25T11:51:25;92894.44;;;13.25;55.20
11808;BME280;5961;42.640;23.380;2023-02-25T11:54:03;92892.94;;;13.27;54.34
11808;BME280;5961;42.640;23.380;2023-02-25T11:56:35;92908.94;;;13.27;53.94
11808;BME280;5961;42.640;23.380;2023-02-25T11:59:13;92908.19;;;13.34;53.64
11808;BME280;5961;42.640;23.380;2023-02-25T12:01:58;92905.56;;;13.41;53.02
11808;BME280;5961;42.640;23.380;2023-02-25T12:07:51;92914.34;;;13.41;53.15
11808;BME280;5961;42.640;23.380;2023-02-25T12:10:55;92891.50;;;13.54;50.57
11808;BME280;5961;42.640;23.380;2023-02-25T12:23:10;92920.56;;;13.81;49.35
11808;BME280;5961;42.640;23.380;2023-02-25T12:25:48;92902.22;;;13.79;49.90
11808;BME280;5961;42.640;23.380;2023-02-25T12:28:44;92919.41;;;13.89;49.78
11808;BME280;5961;42.640;23.380;2023-02-25T12:31:32;92895.75;;;13.80;49.29
11808;BME280;5961;42.640;23.380;2023-02-25T12:34:19;92913.69;;;13.97;49.36
11808;BME280;5961;42.640;23.380;2023-02-25T12:37:00;92893.88;;;14.02;48.51
11808;BME280;5961;42.640;23.380;2023-02-25T12:39:46;92877.81;;;14.05;48.94
11808;BME280;5961;42.640;23.380;2023-02-25T12:42:26;92884.31;;;14.11;49.17
11808;BME280;5961;42.640;23.380;2023-02-25T12:48:10;92862.19;;;14.18;48.30
11808;BME280;5961;42.640;23.380;2023-02-25T12:51:08;92861.41;;;14.21;47.58
11808;BME280;5961;42.640;23.380;2023-02-25T12:53:48;92844.25;;;14.25;47.49
11808;BME280;5961;42.640;23.380;2023-02-25T12:59:39;92841.59;;;14.36;46.86
11808;BME280;5961;42.640;23.380;2023-02-25T13:02:33;92857.63;;;14.43;46.51
11808;BME280;5961;42.640;23.380;2023-02-25T13:05:16;92832.41;;;14.48;46.27
11808;BME280;5961;42.640;23.380;2023-02-25T13:08:06;92827.81;;;14.59;45.03
11808;BME280;5961;42.640;23.380;2023-02-25T13:10:46;92841.13;;;14.73;44.94
11808;BME280;5961;42.640;23.380;2023-02-25T13:13:36;92841.47;;;14.89;43.76
11808;BME280;5961;42.640;23.380;2023-02-25T13:16:25;92833.00;;;15.08;42.90
11808;BME280;5961;42.640;23.380;2023-02-25T13:19:09;92835.63;;;15.22;42.60
11808;BME280;5961;42.640;23.380;2023-02-25T13:21:49;92830.97;;;15.33;42.59
11808;BME280;5961;42.640;23.380;2023-02-25T13:24:25;92822.50;;;15.42;42.74
11808;BME280;5961;42.640;23.380;2023-02-25T13:27:13;92816.78;;;15.47;42.01
11808;BME280;5961;42.640;23.380;2023-02-25T13:30:04;92833.22;;;15.49;41.49
11808;BME280;5961;42.640;23.380;2023-02-25T13:32:42;92809.47;;;15.51;41.70
11808;BME280;5961;42.640;23.380;2023-02-25T13:35:23;92809.44;;;15.58;41.77
11808;BME280;5961;42.640;23.380;2023-02-25T13:38:05;92814.81;;;15.58;42.38
11808;BME280;5961;42.640;23.380;2023-02-25T13:40:45;92827.00;;;15.59;40.46
11808;BME280;5961;42.640;23.380;2023-02-25T13:43:32;92820.09;;;15.65;39.98
11808;BME280;5961;42.640;23.380;2023-02-25T13:46:29;92809.38;;;15.69;40.22
11808;BME280;5961;42.640;23.380;2023-02-25T13:49:47;92818.53;;;15.71;40.05
11808;BME280;5961;42.640;23.380;2023-02-25T13:52:26;92813.94;;;15.72;39.82